TimeCDT,TemperatureF,Dew PointF,Humidity,Sea Level PressureIn,VisibilityMPH,Wind Direction,Wind SpeedMPH,Gust SpeedMPH,PrecipitationIn,Events,Conditions,WindDirDegrees,DateUTC
12:52 AM,73.0,59.0,61,29.88,10.0,SE,6.9,-,N/A,,Clear,130,2012-08-29 05:52:00
1:52 AM,75.0,57.9,55,29.88,10.0,SE,8.1,-,N/A,,Clear,140,2012-08-29 06:52:00
2:52 AM,68.0,60.1,76,29.88,10.0,ESE,9.2,-,N/A,,Clear,110,2012-08-29 07:52:00
3:52 AM,66.0,60.1,81,29.88,10.0,SE,9.2,-,N/A,,Clear,130,2012-08-29 08:52:00
4:52 AM,64.9,60.1,84,29.88,10.0,SE,8.1,-,N/A,,Clear,130,2012-08-29 09:52:00
5:52 AM,64.0,59.0,84,29.88,10.0,ESE,8.1,-,N/A,,Clear,120,2012-08-29 10:52:00
6:52 AM,63.0,57.9,84,29.88,10.0,ESE,6.9,-,N/A,,Clear,120,2012-08-29 11:52:00
7:52 AM,66.0,59.0,78,29.88,10.0,East,4.6,-,N/A,,Clear,90,2012-08-29 12:52:00
8:52 AM,75.0,59.0,57,29.87,10.0,SE,5.8,-,N/A,,Clear,140,2012-08-29 13:52:00
9:52 AM,81.0,57.9,45,29.87,10.0,South,6.9,-,N/A,,Clear,190,2012-08-29 14:52:00
10:52 AM,86.0,54.0,33,29.87,10.0,SW,13.8,19.6,N/A,,Clear,220,2012-08-29 15:52:00
11:52 AM,91.9,53.1,27,29.85,10.0,SSW,13.8,21.9,N/A,,Clear,200,2012-08-29 16:52:00
12:52 PM,95.0,54.0,25,29.83,10.0,SSW,15.0,23.0,N/A,,Clear,210,2012-08-29 17:52:00
1:52 PM,99.0,54.0,22,29.80,10.0,SSW,18.4,26.5,N/A,,Clear,200,2012-08-29 18:52:00
2:52 PM,99.0,54.0,22,29.78,10.0,SSW,17.3,28.8,N/A,,Clear,210,2012-08-29 19:52:00
3:52 PM,100.9,54.0,21,29.77,10.0,SSW,13.8,24.2,N/A,,Clear,210,2012-08-29 20:52:00
4:52 PM,99.0,54.0,22,29.77,10.0,SSW,12.7,28.8,N/A,,Clear,210,2012-08-29 21:52:00
5:52 PM,98.1,54.0,23,29.76,10.0,SSW,11.5,21.9,N/A,,Clear,200,2012-08-29 22:52:00
6:52 PM,93.9,54.0,26,29.75,10.0,South,9.2,-,N/A,,Clear,180,2012-08-29 23:52:00
7:52 PM,89.1,55.9,32,29.75,10.0,South,8.1,-,N/A,,Clear,170,2012-08-30 00:52:00
8:52 PM,87.1,57.0,36,29.76,10.0,South,10.4,19.6,N/A,,Clear,190,2012-08-30 01:52:00
9:52 PM,84.9,55.0,36,29.77,10.0,South,9.2,20.7,N/A,,Clear,190,2012-08-30 02:52:00
10:52 PM,82.9,54.0,37,29.78,10.0,South,9.2,-,N/A,,Clear,180,2012-08-30 03:52:00
11:52 PM,81.0,55.9,42,29.78,10.0,South,9.2,18.4,N/A,,Clear,190,2012-08-30 04:52:00